createdAt,value
2024-02-29T00:02:24.730Z,97.92
2024-02-29T00:05:27.878Z,98.03
2024-02-29T00:08:30.865Z,97.76
2024-02-29T00:11:34.159Z,98.72
2024-02-29T00:14:39.695Z,98.22
2024-02-29T00:17:43.121Z,98.16
2024-02-29T00:20:46.269Z,99.11
2024-02-29T00:23:49.666Z,98.78
2024-02-29T00:26:52.442Z,98.31
2024-02-29T00:29:55.781Z,98.44
2024-02-29T00:32:58.820Z,97.92
2024-02-29T00:36:09.316Z,99.09
2024-02-29T00:39:15.418Z,100.00
2024-02-29T00:42:19.073Z,100.00
2024-02-29T00:45:21.857Z,100.00
2024-02-29T00:48:24.938Z,99.53
2024-02-29T00:51:27.936Z,100.00
2024-02-29T00:54:31.186Z,99.45
2024-02-29T00:57:34.355Z,99.58
2024-02-29T01:00:37.722Z,100.00
2024-02-29T01:03:41.087Z,100.00
2024-02-29T01:06:44.570Z,100.00
2024-02-29T01:09:47.564Z,100.00
2024-02-29T01:12:50.959Z,100.00
2024-02-29T01:15:53.999Z,100.00
2024-02-29T01:18:58.519Z,100.00
2024-02-29T01:22:03.734Z,100.00
2024-02-29T01:25:07.811Z,100.00
2024-02-29T01:28:11.490Z,100.00
2024-02-29T01:31:15.627Z,100.00
2024-02-29T01:34:19.948Z,100.00
2024-02-29T01:37:23.366Z,100.00
2024-02-29T01:40:26.613Z,100.00
2024-02-29T01:43:30.791Z,100.00
2024-02-29T01:46:33.802Z,100.00
2024-02-29T01:49:37.391Z,100.00
2024-02-29T01:52:44.419Z,100.00
2024-02-29T01:55:47.836Z,100.00
2024-02-29T01:58:51.151Z,100.00
2024-02-29T02:01:54.485Z,100.00
2024-02-29T02:04:57.859Z,100.00
2024-02-29T02:08:00.882Z,100.00
2024-02-29T02:11:04.378Z,100.00
2024-02-29T02:14:07.312Z,100.00
2024-02-29T02:17:11.743Z,100.00
2024-02-29T02:20:18.959Z,100.00
2024-02-29T02:23:22.927Z,100.00
2024-02-29T02:26:25.698Z,100.00
2024-02-29T02:29:29.050Z,100.00
2024-02-29T02:32:31.905Z,100.00
2024-02-29T02:35:35.504Z,100.00
2024-02-29T02:38:38.510Z,100.00
2024-02-29T02:41:42.299Z,100.00
2024-02-29T02:44:45.056Z,100.00
2024-02-29T02:47:48.151Z,100.00
2024-02-29T02:50:52.668Z,100.00
2024-02-29T02:53:55.832Z,100.00
2024-02-29T02:56:58.808Z,100.00
2024-02-29T03:00:02.019Z,100.00
2024-02-29T03:03:05.194Z,100.00
2024-02-29T03:06:08.261Z,100.00
2024-02-29T03:09:12.672Z,100.00
2024-02-29T03:12:16.836Z,100.00
2024-02-29T03:15:19.818Z,100.00
2024-02-29T03:18:22.975Z,100.00
2024-02-29T03:21:25.885Z,100.00
2024-02-29T03:24:29.007Z,100.00
2024-02-29T03:27:31.934Z,100.00
2024-02-29T03:30:35.166Z,100.00
2024-02-29T03:33:38.495Z,100.00
2024-02-29T03:36:41.787Z,100.00
2024-02-29T03:39:44.701Z,100.00
2024-02-29T03:42:47.951Z,100.00
2024-02-29T03:45:50.761Z,100.00
2024-02-29T03:48:54.018Z,100.00
2024-02-29T03:51:56.821Z,100.00
2024-02-29T03:54:59.932Z,100.00
2024-02-29T03:58:02.699Z,100.00
2024-02-29T04:01:06.856Z,100.00
2024-02-29T04:04:10.163Z,100.00
2024-02-29T04:07:13.046Z,100.00
2024-02-29T04:10:16.653Z,100.00
2024-02-29T04:13:19.738Z,100.00
2024-02-29T04:16:23.583Z,100.00
2024-02-29T04:19:26.252Z,100.00
2024-02-29T04:22:31.169Z,100.00
2024-02-29T04:25:34.053Z,100.00
2024-02-29T04:28:37.843Z,100.00
2024-02-29T04:31:40.730Z,100.00
2024-02-29T04:34:43.887Z,100.00
2024-02-29T04:37:46.593Z,100.00
2024-02-29T04:40:49.665Z,100.00
2024-02-29T04:43:52.731Z,100.00
2024-02-29T04:46:55.844Z,100.00
2024-02-29T04:49:59.673Z,100.00
2024-02-29T04:53:02.848Z,100.00
2024-02-29T04:56:07.400Z,100.00
2024-02-29T04:59:11.549Z,100.00
2024-02-29T05:02:14.798Z,100.00
2024-02-29T05:05:18.292Z,100.00
2024-02-29T05:08:21.038Z,100.00
2024-02-29T05:11:24.426Z,100.00
2024-02-29T05:14:27.184Z,100.00
2024-02-29T05:17:30.634Z,100.00
2024-02-29T05:20:33.615Z,100.00
2024-02-29T05:23:36.671Z,100.00
2024-02-29T05:26:39.847Z,100.00
2024-02-29T05:29:43.030Z,100.00
2024-02-29T05:32:46.065Z,100.00
2024-02-29T05:35:52.325Z,100.00
2024-02-29T05:38:56.031Z,100.00
2024-02-29T05:41:59.525Z,100.00
2024-02-29T05:45:03.250Z,100.00
2024-02-29T05:48:06.875Z,100.00
2024-02-29T05:51:10.337Z,100.00
2024-02-29T05:54:13.719Z,100.00
2024-02-29T05:57:16.554Z,100.00
2024-02-29T06:00:20.899Z,100.00
2024-02-29T06:03:24.028Z,100.00
2024-02-29T06:06:27.227Z,100.00
2024-02-29T06:09:30.381Z,100.00
2024-02-29T06:12:33.164Z,100.00
2024-02-29T06:15:36.388Z,100.00
2024-02-29T06:18:39.498Z,100.00
2024-02-29T06:21:43.272Z,100.00
2024-02-29T06:24:46.358Z,100.00
2024-02-29T06:27:49.866Z,100.00
2024-02-29T06:30:53.379Z,100.00
2024-02-29T06:33:56.729Z,100.00
2024-02-29T06:36:59.659Z,100.00
2024-02-29T06:40:02.985Z,100.00
2024-02-29T06:43:05.964Z,100.00
2024-02-29T06:46:11.835Z,100.00
2024-02-29T06:49:15.006Z,100.00
2024-02-29T06:52:18.400Z,99.44
2024-02-29T06:55:21.459Z,99.81
2024-02-29T06:58:24.578Z,97.72
2024-02-29T07:01:28.308Z,96.51
2024-02-29T07:04:31.492Z,95.64
2024-02-29T07:07:34.482Z,93.49
2024-02-29T07:10:37.724Z,93.69
2024-02-29T07:13:40.752Z,91.82
2024-02-29T07:16:44.488Z,89.59
2024-02-29T07:19:47.333Z,89.30
2024-02-29T07:22:50.903Z,88.84
2024-02-29T07:25:54.750Z,87.65
2024-02-29T07:28:58.929Z,87.60
2024-02-29T07:32:02.274Z,84.13
2024-02-29T07:35:06.538Z,82.67
2024-02-29T07:38:09.261Z,81.37
2024-02-29T07:41:12.418Z,78.68
2024-02-29T07:44:15.792Z,79.13
2024-02-29T07:47:19.346Z,77.83
2024-02-29T07:50:22.141Z,75.70
2024-02-29T07:53:25.139Z,73.53
2024-02-29T07:56:30.295Z,73.93
2024-02-29T07:59:33.499Z,73.78
2024-02-29T08:02:36.275Z,72.99
2024-02-29T08:05:39.731Z,70.35
2024-02-29T08:08:42.915Z,70.79
2024-02-29T08:11:47.481Z,68.46
2024-02-29T08:14:50.601Z,68.20
2024-02-29T08:17:54.114Z,66.61
2024-02-29T08:20:57.107Z,65.81
2024-02-29T08:24:01.234Z,67.03
2024-02-29T08:27:04.784Z,67.91
2024-02-29T08:30:08.424Z,69.18
2024-02-29T08:33:11.451Z,69.43
2024-02-29T08:36:14.776Z,68.02
2024-02-29T08:39:18.721Z,67.02
2024-02-29T08:42:22.026Z,67.12
2024-02-29T08:45:24.788Z,66.95
2024-02-29T08:48:28.903Z,65.87
2024-02-29T08:51:32.965Z,64.33
2024-02-29T08:54:36.691Z,66.40
2024-02-29T08:57:40.109Z,69.62
2024-02-29T09:00:46.062Z,69.08
2024-02-29T09:03:51.179Z,67.03
2024-02-29T09:06:55.086Z,66.99
2024-02-29T09:09:58.228Z,66.68
2024-02-29T09:13:04.713Z,63.62
2024-02-29T09:16:11.236Z,61.39
2024-02-29T09:19:14.916Z,60.68
2024-02-29T09:22:17.920Z,59.63
2024-02-29T09:25:21.240Z,60.81
2024-02-29T09:28:24.283Z,60.78
2024-02-29T09:31:27.520Z,56.57
2024-02-29T09:34:35.540Z,56.70
2024-02-29T09:37:41.285Z,56.38
2024-02-29T09:40:49.580Z,54.91
2024-02-29T09:43:57.758Z,52.33
2024-02-29T09:47:00.795Z,54.57
2024-02-29T09:50:05.870Z,54.54
2024-02-29T09:53:11.326Z,54.72
2024-02-29T09:56:15.586Z,55.08
2024-02-29T09:59:19.584Z,53.44
2024-02-29T10:02:24.591Z,52.25
2024-02-29T10:05:28.281Z,50.28
2024-02-29T10:08:32.171Z,52.32
2024-02-29T10:11:43.308Z,51.88
2024-02-29T10:14:47.314Z,49.95
2024-02-29T10:17:50.927Z,47.07
2024-02-29T10:20:54.017Z,44.44
2024-02-29T10:23:58.649Z,45.72
2024-02-29T10:27:06.533Z,43.54
2024-02-29T10:30:16.200Z,45.44
2024-02-29T10:33:19.256Z,43.59
2024-02-29T10:36:22.810Z,43.25
2024-02-29T10:39:25.675Z,43.11
2024-02-29T10:42:29.043Z,42.65
2024-02-29T10:45:36.483Z,44.40
2024-02-29T10:49:34.526Z,43.84
2024-02-29T10:52:44.911Z,43.60
2024-02-29T10:55:54.169Z,42.67
2024-02-29T10:59:08.894Z,41.97
2024-02-29T11:02:13.305Z,42.84
2024-02-29T11:05:18.395Z,40.09
2024-02-29T11:08:22.473Z,39.89
2024-02-29T11:11:29.798Z,38.60
2024-02-29T11:14:37.298Z,39.28
2024-02-29T11:17:42.914Z,39.59
2024-02-29T11:20:46.074Z,40.36
2024-02-29T11:23:49.027Z,40.18
2024-02-29T11:26:58.889Z,39.04
2024-02-29T11:30:02.690Z,38.35
2024-02-29T11:33:12.632Z,39.99
2024-02-29T11:36:16.199Z,36.35
2024-02-29T11:39:23.946Z,39.60
2024-02-29T11:42:28.366Z,36.01
2024-02-29T11:45:32.680Z,37.18
2024-02-29T11:48:36.275Z,41.94
2024-02-29T11:51:39.408Z,41.42
2024-02-29T11:54:43.514Z,41.87
2024-02-29T11:57:47.496Z,41.65
2024-02-29T12:00:50.810Z,41.50
2024-02-29T12:03:54.281Z,41.48
2024-02-29T12:06:57.356Z,41.89
2024-02-29T12:10:05.439Z,41.66
2024-02-29T12:13:08.935Z,42.16
2024-02-29T12:16:12.534Z,42.35
2024-02-29T12:19:15.938Z,43.22
2024-02-29T12:22:20.412Z,44.97
2024-02-29T12:25:23.993Z,44.57
2024-02-29T12:28:27.445Z,43.95
2024-02-29T12:31:30.745Z,42.39
2024-02-29T12:34:34.094Z,41.82
2024-02-29T12:37:40.650Z,40.49
2024-02-29T12:40:44.897Z,39.99
2024-02-29T12:43:55.506Z,39.05
2024-02-29T12:46:59.752Z,39.09
2024-02-29T12:50:03.134Z,38.75
2024-02-29T12:53:07.042Z,39.22
2024-02-29T12:56:10.488Z,40.97
2024-02-29T12:59:14.036Z,39.80
2024-02-29T13:02:17.478Z,39.15
2024-02-29T13:05:22.628Z,39.46
2024-02-29T13:08:25.897Z,41.11
2024-02-29T13:11:29.531Z,39.79
2024-02-29T13:14:32.420Z,39.98
2024-02-29T13:17:35.875Z,39.84
2024-02-29T13:20:39.167Z,40.27
2024-02-29T13:23:42.526Z,41.54
2024-02-29T13:26:45.603Z,41.96
2024-02-29T13:29:48.830Z,42.18
2024-02-29T13:32:51.877Z,42.89
2024-02-29T13:35:55.431Z,41.78
2024-02-29T13:38:58.279Z,41.94
2024-02-29T13:42:06.614Z,41.92
2024-02-29T13:45:10.985Z,42.17
2024-02-29T13:48:14.722Z,42.27
2024-02-29T13:51:17.721Z,42.66
2024-02-29T13:54:21.325Z,42.51
2024-02-29T13:57:24.368Z,43.61
2024-02-29T14:00:27.625Z,43.77
2024-02-29T14:03:30.665Z,44.03
2024-02-29T14:06:34.154Z,44.90
2024-02-29T14:09:37.857Z,45.52
2024-02-29T14:12:41.771Z,47.27
2024-02-29T14:15:45.121Z,47.84
2024-02-29T14:18:48.181Z,47.99
2024-02-29T14:21:53.118Z,48.31
2024-02-29T14:24:55.961Z,49.09
2024-02-29T14:27:59.398Z,49.43
2024-02-29T14:31:03.177Z,49.36
2024-02-29T14:34:07.485Z,49.74
2024-02-29T14:37:10.852Z,50.29
2024-02-29T14:40:14.357Z,50.53
2024-02-29T14:43:17.468Z,50.61
2024-02-29T14:46:20.680Z,51.02
2024-02-29T14:49:24.538Z,50.81
2024-02-29T14:52:28.654Z,51.05
2024-02-29T14:55:31.628Z,51.12
2024-02-29T14:58:35.292Z,51.67
2024-02-29T15:01:38.455Z,51.54
2024-02-29T15:04:42.012Z,51.79
2024-02-29T15:07:45.238Z,51.74
2024-02-29T15:10:49.065Z,52.63
2024-02-29T15:13:52.005Z,52.13
2024-02-29T15:16:55.390Z,51.51
2024-02-29T15:19:59.432Z,51.42
2024-02-29T15:23:02.950Z,51.38
2024-02-29T15:26:10.807Z,51.41
2024-02-29T15:29:14.081Z,51.59
2024-02-29T15:32:20.482Z,51.79
2024-02-29T15:35:23.662Z,51.68
2024-02-29T15:38:27.225Z,52.36
2024-02-29T15:41:30.798Z,52.25
2024-02-29T15:44:35.043Z,52.65
2024-02-29T15:47:38.318Z,52.22
2024-02-29T15:50:41.631Z,52.53
2024-02-29T15:53:45.281Z,52.35
2024-02-29T15:56:49.532Z,52.69
2024-02-29T15:59:52.972Z,52.90
2024-02-29T16:02:55.872Z,53.33
2024-02-29T16:05:58.897Z,53.35
2024-02-29T16:09:02.025Z,53.76
2024-02-29T16:12:07.271Z,53.93
2024-02-29T16:15:11.265Z,54.52
2024-02-29T16:18:14.469Z,54.84
2024-02-29T16:21:17.558Z,55.11
2024-02-29T16:24:20.749Z,55.23
2024-02-29T16:27:23.588Z,55.75
2024-02-29T16:30:26.786Z,55.85
2024-02-29T16:33:29.993Z,56.50
2024-02-29T16:36:35.826Z,56.49
2024-02-29T16:39:38.637Z,57.05
2024-02-29T16:42:42.079Z,57.91
2024-02-29T16:45:45.933Z,58.19
2024-02-29T16:48:55.160Z,58.78
2024-02-29T16:51:59.501Z,57.90
2024-02-29T16:55:03.266Z,58.80
2024-02-29T16:58:07.300Z,59.18
2024-02-29T17:01:11.234Z,59.23
2024-02-29T17:04:14.221Z,59.45
2024-02-29T17:07:17.398Z,60.33
2024-02-29T17:10:20.388Z,60.38
2024-02-29T17:13:24.164Z,59.89
2024-02-29T17:16:27.354Z,60.53
2024-02-29T17:19:30.731Z,60.96
2024-02-29T17:22:33.831Z,60.91
2024-02-29T17:25:39.435Z,61.80
2024-02-29T17:28:42.735Z,61.52
2024-02-29T17:31:46.758Z,61.16
2024-02-29T17:34:50.892Z,62.13
2024-02-29T17:37:54.043Z,63.03
2024-02-29T17:40:57.394Z,62.29
2024-02-29T17:44:00.522Z,62.63
2024-02-29T17:47:04.613Z,63.27
2024-02-29T17:50:09.160Z,64.64
2024-02-29T17:53:12.251Z,65.64
2024-02-29T17:56:19.756Z,65.00
2024-02-29T17:59:22.927Z,65.10
2024-02-29T18:02:26.606Z,64.96
2024-02-29T18:05:30.145Z,65.57
2024-02-29T18:08:33.391Z,65.60
2024-02-29T18:11:36.494Z,65.58
2024-02-29T18:14:39.326Z,65.48
2024-02-29T18:17:42.460Z,65.72
2024-02-29T18:20:45.866Z,65.11
2024-02-29T18:23:52.055Z,65.85
2024-02-29T18:26:55.441Z,65.83
2024-02-29T18:29:59.008Z,65.47
2024-02-29T18:33:01.855Z,65.18
2024-02-29T18:36:05.499Z,65.19
2024-02-29T18:39:13.192Z,65.05
2024-02-29T18:42:18.710Z,64.72
2024-02-29T18:45:21.617Z,64.18
2024-02-29T18:48:25.504Z,64.15
2024-02-29T18:51:28.255Z,63.98
2024-02-29T18:54:31.851Z,64.22
2024-02-29T18:57:36.115Z,63.82
2024-02-29T19:00:39.421Z,63.99
2024-02-29T19:03:42.272Z,64.04
2024-02-29T19:06:47.181Z,64.70
2024-02-29T19:09:50.339Z,64.22
2024-02-29T19:12:53.642Z,64.32
2024-02-29T19:15:56.891Z,64.13
2024-02-29T19:19:00.785Z,64.34
2024-02-29T19:22:05.127Z,63.98
2024-02-29T19:25:09.007Z,63.84
2024-02-29T19:28:12.253Z,64.17
2024-02-29T19:31:16.855Z,64.34
2024-02-29T19:34:21.826Z,64.73
2024-02-29T19:37:25.571Z,64.61
2024-02-29T19:40:30.157Z,64.09
2024-02-29T19:43:33.812Z,64.54
2024-02-29T19:46:44.440Z,64.47
2024-02-29T19:49:47.880Z,65.07
2024-02-29T19:52:52.166Z,65.01
2024-02-29T19:55:56.690Z,65.08
2024-02-29T19:58:59.659Z,65.13
2024-02-29T20:02:03.416Z,64.96
2024-02-29T20:05:08.981Z,65.00
2024-02-29T20:08:12.449Z,64.76
2024-02-29T20:11:16.540Z,64.72
2024-02-29T20:14:19.522Z,64.78
2024-02-29T20:17:24.256Z,64.65
2024-02-29T20:20:27.573Z,64.70
2024-02-29T20:23:31.146Z,64.76
2024-02-29T20:26:34.457Z,64.99
2024-02-29T20:29:37.831Z,65.33
2024-02-29T20:32:41.753Z,65.75
2024-02-29T20:35:45.155Z,65.27
2024-02-29T20:38:48.613Z,65.41
2024-02-29T20:41:51.924Z,65.20
2024-02-29T20:44:56.399Z,65.17
2024-02-29T20:48:00.269Z,65.16
2024-02-29T20:51:05.142Z,65.85
2024-02-29T20:54:08.948Z,65.48
2024-02-29T20:57:11.724Z,66.05
2024-02-29T21:00:18.418Z,65.80
2024-02-29T21:06:49.380Z,67.63
2024-02-29T21:09:53.232Z,67.72
2024-02-29T21:12:57.323Z,68.16
2024-02-29T21:16:01.088Z,68.55
2024-02-29T21:19:04.863Z,68.70
2024-02-29T21:22:12.049Z,69.43
2024-02-29T21:25:15.365Z,69.41
2024-02-29T21:28:18.480Z,70.28
2024-02-29T21:31:21.730Z,70.59
2024-02-29T21:34:24.613Z,70.86
2024-02-29T21:37:27.912Z,72.21
2024-02-29T21:40:32.528Z,72.40
2024-02-29T21:43:36.051Z,72.77
2024-02-29T21:46:38.935Z,74.16
2024-02-29T21:49:42.319Z,73.75
2024-02-29T21:52:45.258Z,73.51
2024-02-29T21:55:48.742Z,72.50
2024-02-29T21:58:51.966Z,72.99
2024-02-29T22:01:58.751Z,72.88
2024-02-29T22:05:02.157Z,73.59
2024-02-29T22:08:06.260Z,74.26
2024-02-29T22:11:10.154Z,74.80
2024-02-29T22:14:13.485Z,76.27
2024-02-29T22:17:16.883Z,77.04
2024-02-29T22:20:20.813Z,76.20
2024-02-29T22:23:23.999Z,77.17
2024-02-29T22:26:27.430Z,77.49
2024-02-29T22:29:30.929Z,78.00
2024-02-29T22:32:34.134Z,77.19
2024-02-29T22:35:37.393Z,77.47
2024-02-29T22:38:41.382Z,77.91
2024-02-29T22:41:56.538Z,76.73
2024-02-29T22:45:08.670Z,75.60
2024-02-29T22:48:11.998Z,75.75
2024-02-29T22:51:17.166Z,76.39
2024-02-29T22:54:20.663Z,77.34
2024-02-29T22:57:23.482Z,77.55
2024-02-29T23:00:31.944Z,78.61
2024-02-29T23:03:36.032Z,80.09
2024-02-29T23:06:39.543Z,78.69
2024-02-29T23:09:42.284Z,80.73
2024-02-29T23:12:45.833Z,80.55
2024-02-29T23:15:50.608Z,79.97
2024-02-29T23:18:53.827Z,80.04
2024-02-29T23:21:56.840Z,79.12
2024-02-29T23:25:00.048Z,82.52
2024-02-29T23:28:02.901Z,82.92
2024-02-29T23:31:06.731Z,82.57
2024-02-29T23:34:09.620Z,82.21
2024-02-29T23:37:13.063Z,80.96
2024-02-29T23:40:16.168Z,81.81
2024-02-29T23:43:19.859Z,81.25
2024-02-29T23:46:23.109Z,82.23
2024-02-29T23:49:27.081Z,84.44
2024-02-29T23:52:29.950Z,84.60
2024-02-29T23:55:33.347Z,85.53
2024-02-29T23:58:37.594Z,84.17
